EDT,Max TemperatureF,Mean TemperatureF,Min TemperatureF,Max Dew PointF,MeanDew PointF,Min DewpointF,Max Humidity, Mean Humidity, Min Humidity, Max Sea Level PressureIn, Mean Sea Level PressureIn, Min Sea Level PressureIn, Max VisibilityMiles, Mean VisibilityMiles, Min VisibilityMiles, Max Wind SpeedMPH, Mean Wind SpeedMPH, Max Gust SpeedMPH,PrecipitationIn, CloudCover, Events, WindDirDegrees
2013-7-1,70,63,56,54,46,38,89,54,30,30.20,30.15,30.06,10,10,10,15,9,21,0.00,0,,78
2013-7-2,72,63,54,51,44,35,85,51,27,30.19,30.16,30.11,10,10,10,10,6,,0.00,1,,88
2013-7-3,72,66,59,61,51,42,88,60,34,30.14,30.10,30.04,10,10,1,13,5,18,0.00,3,,89
2013-7-4,74,68,63,63,62,58,94,82,64,30.08,30.05,30.02,10,8,1,15,7,24,0.00,4,,225
2013-7-5,82,73,64,63,60,58,88,68,48,30.07,30.04,30.00,10,10,7,12,7,,0.00,0,,219
2013-7-6,81,74,67,62,59,54,79,59,44,30.03,30.01,29.97,10,10,10,15,9,24,0.00,0,,220
2013-7-7,78,70,63,66,63,57,89,73,59,29.99,29.95,29.93,10,10,7,13,6,17,0.00,2,,235
2013-7-8,70,68,65,67,66,64,96,93,83,30.00,29.97,29.94,10,3,0,14,6,18,0.27,8,Fog-Rain,96
2013-7-9,74,70,66,69,67,65,96,93,82,30.01,29.93,29.73,10,4,0,9,4,,0.00,7,Fog-Rain,88
2013-7-10,72,68,63,70,60,52,96,77,53,29.93,29.78,29.63,10,9,3,20,11,30,0.00,7,Rain,276
2013-7-11,72,64,55,55,52,48,92,65,42,30.11,30.06,29.93,10,10,7,10,7,,0.00,0,,317
2013-7-12,75,66,57,59,55,49,96,67,39,30.20,30.15,30.10,10,10,0,10,4,16,0.00,0,Fog,160
2013-7-13,80,72,64,62,57,51,87,60,40,30.21,30.18,30.11,10,10,7,13,8,18,0.00,0,,170
2013-7-14,83,72,62,63,60,58,91,64,45,30.27,30.25,30.20,10,10,10,9,4,,0.00,0,,205
2013-7-15,85,76,66,66,63,59,89,64,43,30.31,30.28,30.25,10,10,10,10,5,,0.00,1,,246
2013-7-16,86,78,70,72,66,61,87,67,43,30.28,30.25,30.18,10,10,10,15,6,21,0.00,1,,221
2013-7-17,84,78,72,72,70,66,92,80,61,30.21,30.17,30.10,10,9,4,15,10,28,0.00,2,Rain,249
2013-7-18,85,77,69,73,70,67,94,84,58,30.11,29.98,29.77,10,9,2,34,7,58,1.12,5,Rain,215
2013-7-19,79,72,65,71,66,58,93,81,58,29.78,29.69,29.62,10,10,1,23,13,38,0.95,5,Rain,257
2013-7-20,72,64,55,64,52,41,87,61,34,30.02,29.86,29.73,10,10,10,14,8,18,0.00,1,,318
2013-7-21,68,60,52,56,52,48,94,78,56,30.06,30.02,29.97,10,10,10,16,7,22,0.00,1,,61
2013-7-22,78,71,64,66,62,54,83,72,61,29.96,29.80,29.63,10,10,10,13,7,18,0.00,3,,165
2013-7-23,77,66,55,66,49,43,88,62,51,29.94,29.81,29.60,10,10,10,22,13,33,0.00,4,,320
2013-7-24,69,59,49,54,49,41,92,68,44,30.07,30.02,29.95,10,10,10,16,6,20,0.00,0,,283
2013-7-25,74,66,57,62,55,49,91,71,45,30.08,30.04,29.99,10,10,7,10,5,,0.00,3,,163
2013-7-26,71,66,61,65,60,55,93,82,67,30.01,29.91,29.84,10,9,2,17,8,26,0.61,7,Rain,175
2013-7-27,65,60,55,60,55,49,96,85,68,29.85,29.82,29.77,10,9,2,10,6,,0.00,8,,338
2013-7-28,64,58,51,56,51,47,94,77,58,29.89,29.79,29.73,10,10,3,17,8,23,0.04,6,Rain,254
2013-7-29,69,61,53,56,54,51,96,82,53,30.16,30.03,29.89,10,10,10,12,5,17,0.02,5,,321
2013-7-30,69,61,53,61,56,50,92,80,60,30.21,30.17,30.11,10,10,10,14,4,21,0.00,3,,244
2013-7-31,73,66,60,63,59,55,94,78,68,30.11,30.00,29.86,10,10,7,17,7,28,0.00,5,,222